Terminal Aerodrome Forecast
Issued by NWS Salt Lake City, UT

Home | Current Version | Previous Version | Text Only | Print | Product List | Glossary On
Versions: 1 2 3 4 5 6 7 8 9 10 11 12 13 14 15 16 17 18 19 20 21 22 23 24 25 26 27 28 29 30 31 32 33 34 35 36 37 38 39 40
036
FTUS45 KSLC 261736
TAFCDC
TAF
KCDC 261736Z 2618/2718 22015G25KT P6SM FEW060 SCT120
     FM262100 22012G22KT P6SM VCTS SCT060CB BKN100
     FM270500 16005KT P6SM SCT100=

USA.gov is the U.S. government's official web portal to all federal, state and local government web resources and services.